createdAt,value
2023-04-11T00:00:00.286Z,5
2023-04-11T00:05:00.350Z,5
2023-04-11T00:10:00.795Z,4
2023-04-11T00:15:00.256Z,5
2023-04-11T00:20:00.291Z,4
2023-04-11T00:25:00.318Z,6
2023-04-11T00:30:00.291Z,4
2023-04-11T00:35:00.280Z,3
2023-04-11T00:40:00.301Z,6
2023-04-11T00:45:00.254Z,5
2023-04-11T00:50:00.303Z,3
2023-04-11T00:55:00.237Z,4
2023-04-11T01:00:00.293Z,5
2023-04-11T01:05:00.234Z,4
2023-04-11T01:10:00.271Z,4
2023-04-11T01:15:00.306Z,5
2023-04-11T01:20:00.294Z,3
2023-04-11T01:25:00.251Z,4
2023-04-11T01:30:00.280Z,4
2023-04-11T01:35:00.245Z,4
2023-04-11T01:40:00.274Z,3
2023-04-11T01:45:00.242Z,4
2023-04-11T01:50:00.283Z,6
2023-04-11T01:55:00.293Z,5
2023-04-11T02:00:00.279Z,4
2023-04-11T02:05:00.239Z,4
2023-04-11T02:10:00.277Z,3
2023-04-11T02:15:00.231Z,5
2023-04-11T02:20:00.275Z,4
2023-04-11T02:25:00.243Z,4
2023-04-11T02:30:00.282Z,4
2023-04-11T02:35:00.296Z,2
2023-04-11T02:40:00.292Z,4
2023-04-11T02:45:00.241Z,4
2023-04-11T02:50:00.264Z,3
2023-04-11T02:55:00.301Z,6
2023-04-11T03:00:00.274Z,4
2023-04-11T03:05:00.295Z,4
2023-04-11T03:10:00.412Z,3
2023-04-11T03:15:00.287Z,4
2023-04-11T03:20:00.247Z,5
2023-04-11T03:25:00.240Z,4
2023-04-11T03:30:00.282Z,4
2023-04-11T03:35:00.422Z,4
2023-04-11T03:40:00.279Z,5
2023-04-11T03:45:00.283Z,4
2023-04-11T03:50:00.816Z,1
2023-04-11T03:55:00.247Z,3
2023-04-11T04:00:00.282Z,2
2023-04-11T04:05:00.322Z,3
2023-04-11T04:10:00.272Z,3
2023-04-11T04:15:00.351Z,4
2023-04-11T04:20:00.273Z,4
2023-04-11T04:25:00.273Z,5
2023-04-11T04:30:02.889Z,2
2023-04-11T04:35:00.237Z,3
2023-04-11T04:40:00.304Z,3
2023-04-11T04:45:00.281Z,3
2023-04-11T04:50:00.292Z,2
2023-04-11T04:55:00.266Z,4
2023-04-11T05:00:00.318Z,1
2023-04-11T05:05:00.340Z,1
2023-04-11T05:10:00.341Z,3
2023-04-11T05:15:00.281Z,2
2023-04-11T05:20:00.320Z,3
2023-04-11T05:25:00.278Z,2
2023-04-11T05:35:00.276Z,2
2023-04-11T05:40:00.498Z,2
2023-04-11T05:45:00.349Z,3
2023-04-11T05:55:00.308Z,3
2023-04-11T06:00:00.317Z,1
2023-04-11T06:05:00.460Z,4
2023-04-11T06:15:00.303Z,3
2023-04-11T06:20:00.335Z,3
2023-04-11T06:25:00.276Z,2
2023-04-11T06:30:00.318Z,3
2023-04-11T06:35:00.330Z,3
2023-04-11T06:45:00.291Z,3
2023-04-11T06:50:00.329Z,3
2023-04-11T06:55:00.295Z,3
2023-04-11T07:00:00.305Z,3
2023-04-11T07:05:00.362Z,3
2023-04-11T07:10:00.316Z,2
2023-04-11T07:15:00.312Z,3
2023-04-11T07:20:00.308Z,4
2023-04-11T07:25:00.327Z,3
2023-04-11T07:30:00.310Z,4
2023-04-11T07:35:00.323Z,4
2023-04-11T07:40:00.397Z,3
2023-04-11T07:45:00.359Z,5
2023-04-11T07:50:00.332Z,5
2023-04-11T07:55:00.315Z,3
2023-04-11T08:00:00.351Z,5
2023-04-11T08:05:00.466Z,4
2023-04-11T08:10:00.305Z,5
2023-04-11T08:15:00.295Z,4
2023-04-11T08:20:02.122Z,4
2023-04-11T08:25:00.310Z,4
2023-04-11T08:30:00.433Z,3
2023-04-11T08:35:00.381Z,4
2023-04-11T08:40:00.341Z,4
2023-04-11T08:45:00.306Z,2
2023-04-11T08:50:00.318Z,4
2023-04-11T08:55:00.285Z,3
2023-04-11T09:00:00.427Z,4
2023-04-11T09:05:00.304Z,4
2023-04-11T09:10:00.309Z,4
2023-04-11T09:15:00.277Z,5
2023-04-11T09:20:00.306Z,3
2023-04-11T09:25:00.309Z,4
2023-04-11T09:30:00.321Z,4
2023-04-11T09:35:00.403Z,3
2023-04-11T09:40:00.473Z,4
2023-04-11T09:45:00.333Z,5
2023-04-11T09:50:00.311Z,5
2023-04-11T09:55:00.303Z,5
2023-04-11T10:00:00.332Z,4
2023-04-11T10:05:00.359Z,5
2023-04-11T10:10:00.345Z,4
2023-04-11T10:15:00.312Z,4
2023-04-11T10:20:00.318Z,4
2023-04-11T10:25:00.305Z,5
2023-04-11T10:30:00.347Z,4
2023-04-11T10:35:00.307Z,5
2023-04-11T10:40:00.319Z,6
2023-04-11T10:45:00.303Z,5
2023-04-11T10:50:00.299Z,5
2023-04-11T10:55:00.294Z,6
2023-04-11T11:00:00.319Z,5
2023-04-11T11:05:00.443Z,4
2023-04-11T11:10:00.303Z,4
2023-04-11T11:15:00.344Z,4
2023-04-11T11:20:00.305Z,5
2023-04-11T11:25:00.279Z,3
2023-04-11T11:30:00.331Z,6
2023-04-11T11:35:00.405Z,6
2023-04-11T11:40:00.478Z,5
2023-04-11T11:45:00.280Z,6
2023-04-11T11:50:00.299Z,4
2023-04-11T11:55:00.323Z,4
2023-04-11T12:00:00.605Z,4
2023-04-11T12:05:00.686Z,3
2023-04-11T12:10:00.293Z,5
2023-04-11T12:15:00.268Z,3
2023-04-11T12:25:00.290Z,1
2023-04-11T12:30:00.360Z,4
2023-04-11T12:35:00.302Z,4
2023-04-11T12:40:00.345Z,2
2023-04-11T12:50:00.360Z,4
2023-04-11T12:55:00.296Z,4
2023-04-11T13:00:00.314Z,5
2023-04-11T13:05:00.467Z,8
2023-04-11T13:10:00.314Z,7
2023-04-11T13:15:00.330Z,4
2023-04-11T13:20:00.310Z,3
2023-04-11T13:25:00.286Z,3
2023-04-11T13:30:00.317Z,3
2023-04-11T13:35:00.423Z,7
2023-04-11T13:40:00.323Z,5
2023-04-11T13:45:00.295Z,6
2023-04-11T13:50:00.586Z,5
2023-04-11T13:55:00.320Z,5
2023-04-11T14:00:00.328Z,5
2023-04-11T14:05:00.312Z,4
2023-04-11T14:10:00.324Z,5
2023-04-11T14:15:00.337Z,6
2023-04-11T14:20:00.319Z,5
2023-04-11T14:25:00.315Z,5
2023-04-11T14:30:00.327Z,4
2023-04-11T14:35:01.927Z,3
2023-04-11T14:40:00.305Z,3
2023-04-11T14:45:00.313Z,1
2023-04-11T14:50:00.317Z,3
2023-04-11T14:55:00.318Z,3
2023-04-11T15:00:00.305Z,3
2023-04-11T15:05:00.316Z,4
2023-04-11T15:10:00.433Z,3
2023-04-11T15:15:00.308Z,4
2023-04-11T15:20:00.340Z,4
2023-04-11T15:25:00.295Z,5
2023-04-11T15:30:00.301Z,5
2023-04-11T15:35:00.306Z,5
2023-04-11T15:40:00.342Z,5
2023-04-11T15:45:00.341Z,4
2023-04-11T15:50:00.304Z,4
2023-04-11T15:55:00.295Z,5
2023-04-11T16:00:00.337Z,7
2023-04-11T16:05:00.486Z,5
2023-04-11T16:10:00.311Z,4
2023-04-11T16:15:00.317Z,3
2023-04-11T16:20:00.335Z,4
2023-04-11T16:25:00.417Z,4
2023-04-11T16:30:00.308Z,6
2023-04-11T16:35:00.427Z,6
2023-04-11T16:40:00.317Z,5
2023-04-11T16:45:00.328Z,5
2023-04-11T16:50:00.328Z,4
2023-04-11T16:55:00.323Z,4
2023-04-11T17:00:00.342Z,5
2023-04-11T17:05:00.313Z,5
2023-04-11T17:10:00.473Z,6
2023-04-11T17:15:00.363Z,5
2023-04-11T17:20:00.319Z,5
2023-04-11T17:25:00.446Z,4
2023-04-11T17:30:00.369Z,4
2023-04-11T17:35:00.318Z,4
2023-04-11T17:40:00.391Z,4
2023-04-11T17:45:06.780Z,5
2023-04-11T17:50:00.366Z,4
2023-04-11T17:55:00.355Z,4
2023-04-11T18:00:00.383Z,5
2023-04-11T18:05:02.306Z,4
2023-04-11T18:10:00.273Z,3
2023-04-11T18:15:00.236Z,5
2023-04-11T18:20:00.297Z,4
2023-04-11T18:25:00.302Z,5
2023-04-11T18:30:00.378Z,5
2023-04-11T18:35:00.296Z,4
2023-04-11T18:40:00.249Z,5
2023-04-11T18:45:00.267Z,3
2023-04-11T18:50:00.272Z,2
2023-04-11T18:55:00.246Z,3
2023-04-11T19:00:02.879Z,1
2023-04-11T19:05:00.707Z,1
2023-04-11T19:25:00.232Z,1
2023-04-11T19:30:00.276Z,1
2023-04-11T19:35:00.303Z,2
2023-04-11T19:40:00.285Z,1
2023-04-11T19:45:00.270Z,1
2023-04-11T19:50:00.470Z,1
2023-04-11T19:55:00.278Z,1
2023-04-11T20:00:00.245Z,1
2023-04-11T20:05:00.300Z,1
2023-04-11T20:10:00.270Z,1
2023-04-11T20:15:00.315Z,1
2023-04-11T20:20:00.278Z,0
2023-04-11T20:25:00.317Z,1
2023-04-11T20:30:00.280Z,1
2023-04-11T20:35:00.361Z,0
2023-04-11T20:40:00.273Z,1
2023-04-11T20:50:00.292Z,1
2023-04-11T20:55:00.290Z,1
2023-04-11T21:00:00.270Z,0
2023-04-11T21:05:00.289Z,1
2023-04-11T21:10:00.245Z,3
2023-04-11T21:15:01.994Z,1
2023-04-11T21:20:00.326Z,1
2023-04-11T21:25:00.478Z,1
2023-04-11T21:30:00.324Z,3
2023-04-11T21:35:00.252Z,2
2023-04-11T21:40:00.275Z,2
2023-04-11T21:45:00.304Z,2
2023-04-11T21:50:00.267Z,1
2023-04-11T21:55:00.285Z,2
2023-04-11T22:00:00.359Z,2
2023-04-11T22:10:02.319Z,2
2023-04-11T22:25:00.265Z,1
2023-04-11T22:40:00.267Z,2
2023-04-11T22:45:00.234Z,2
2023-04-11T22:50:00.302Z,2
2023-04-11T22:55:00.288Z,1
2023-04-11T23:00:00.308Z,1
2023-04-11T23:05:00.234Z,1
2023-04-11T23:10:00.277Z,1
2023-04-11T23:15:00.246Z,1
2023-04-11T23:20:00.293Z,1
2023-04-11T23:25:00.236Z,0
2023-04-11T23:30:00.327Z,0
2023-04-11T23:35:00.318Z,0
2023-04-11T23:40:00.304Z,0
2023-04-11T23:45:00.232Z,0
2023-04-11T23:50:00.284Z,1
2023-04-11T23:55:00.271Z,0
